Fort Irwin, California
Current Conditions -  °F | °C
As of 6:55 PM on Saturday 20 Dec 2014 (Local Time) from KBYS Reporting Station
Clear Clear  
Wind Chill: 41°   Ceiling: Unl
Heat Index: 45°   Visibility: 10mi
Dew Point: 39°   Wind: 7mph
Humidity: 80%   Direction: 340°NNW
Pressure: 30.14"   Gusts: NA
Location:  35.12°N, 116.9°W
Report Text: KBYS 210255Z AUTO 34006KT 10SM CLR 07/04 A3014 RMK AO2 SLP230 T00710039 51019 $
Loading
Personal Weather Stations






























Interactive Weather Map New forecast layout! Learn more

10-Day Weather Forecast

Advertisements
Track Severe Weather on mobile